OAL114 LIPK-LGAV
Flight info
| Callsign | OAL114 |
|---|---|
| Flight time | 1h 40m |
| Altitude | 35000 |
| Route | ASDOR ANC RUPAX KAPPO NOSTO UN7 NEMES |
| Aircraft | B738/M-VGDW/C |
Departure
| Time | 2026-05-05 10:28 |
|---|---|
| Airport | Forlì-Luigi Ridolfi International Airport (LIPK) |
Arrival
| Time | 2026-05-05 12:08 |
|---|---|
| Airport | Athens Eleftherios Venizelos International Airport (LGAV) |
| Time | Latitude | Longitude | Altitude | Speed | Heading |
|---|---|---|---|---|---|
| 2026-05-05 10:13 | 44.19838 | 12.07008 | 105 ft | 0 kts | 23° |
| 2026-05-05 10:15 | 44.19835 | 12.07006 | 105 ft | 2 kts | 23° |
| 2026-05-05 10:15 | 44.19820 | 12.06997 | 105 ft | 3 kts | 23° |
| 2026-05-05 10:15 | 44.19802 | 12.06986 | 105 ft | 3 kts | 23° |
| 2026-05-05 10:15 | 44.19783 | 12.06975 | 105 ft | 3 kts | 23° |
| 2026-05-05 10:16 | 44.19781 | 12.06974 | 105 ft | 0 kts | 23° |
| 2026-05-05 10:17 | 44.19790 | 12.06975 | 105 ft | 2 kts | 343° |
| 2026-05-05 10:18 | 44.19795 | 12.06958 | 105 ft | 3 kts | 262° |
| 2026-05-05 10:18 | 44.19782 | 12.06917 | 105 ft | 6 kts | 256° |
| 2026-05-05 10:18 | 44.19788 | 12.06856 | 105 ft | 7 kts | 308° |
| 2026-05-05 10:18 | 44.19833 | 12.06826 | 105 ft | 8 kts | 345° |
| 2026-05-05 10:19 | 44.19868 | 12.06774 | 105 ft | 8 kts | 281° |
| 2026-05-05 10:19 | 44.19871 | 12.06687 | 105 ft | 9 kts | 270° |
| 2026-05-05 10:19 | 44.19871 | 12.06591 | 105 ft | 10 kts | 270° |
| 2026-05-05 10:19 | 44.19871 | 12.06485 | 105 ft | 11 kts | 270° |
| 2026-05-05 10:20 | 44.19871 | 12.06370 | 105 ft | 12 kts | 270° |
| 2026-05-05 10:20 | 44.19869 | 12.06253 | 105 ft | 9 kts | 249° |
| 2026-05-05 10:20 | 44.19820 | 12.06193 | 105 ft | 10 kts | 248° |
| 2026-05-05 10:20 | 44.19829 | 12.06134 | 105 ft | 10 kts | 296° |
| 2026-05-05 10:21 | 44.19862 | 12.06044 | 105 ft | 11 kts | 297° |
| 2026-05-05 10:21 | 44.19911 | 12.05913 | 105 ft | 12 kts | 297° |
| 2026-05-05 10:21 | 44.19949 | 12.05808 | 105 ft | 12 kts | 297° |
| 2026-05-05 10:21 | 44.19997 | 12.05718 | 105 ft | 10 kts | 334° |
| 2026-05-05 10:22 | 44.20027 | 12.05695 | 105 ft | 7 kts | 308° |
| 2026-05-05 10:22 | 44.20008 | 12.05654 | 105 ft | 7 kts | 160° |
| 2026-05-05 10:22 | 44.19995 | 12.05674 | 105 ft | 0 kts | 117° |
| 2026-05-05 10:27 | 44.19974 | 12.05729 | 105 ft | 16 kts | 117° |
| 2026-05-05 10:27 | 44.19839 | 12.06106 | 105 ft | 76 kts | 116° |
| 2026-05-05 10:27 | 44.19507 | 12.07019 | 105 ft | 134 kts | 117° |
| 2026-05-05 10:27 | 44.19012 | 12.08338 | 350 ft | 161 kts | 117° |
| 2026-05-05 10:28 | 44.18495 | 12.09695 | 1066 ft | 161 kts | 117° |
| 2026-05-05 10:28 | 44.17966 | 12.11133 | 1676 ft | 170 kts | 116° |
| 2026-05-05 10:28 | 44.17430 | 12.12617 | 2203 ft | 181 kts | 116° |
| 2026-05-05 10:28 | 44.16829 | 12.14277 | 2502 ft | 203 kts | 116° |
| 2026-05-05 10:29 | 44.16158 | 12.16121 | 2765 ft | 224 kts | 117° |
| 2026-05-05 10:29 | 44.15423 | 12.18136 | 3105 ft | 240 kts | 118° |
| 2026-05-05 10:29 | 44.14664 | 12.20216 | 3845 ft | 242 kts | 118° |
| 2026-05-05 10:29 | 44.13895 | 12.22322 | 4586 ft | 245 kts | 119° |
| 2026-05-05 10:30 | 44.13118 | 12.24455 | 5288 ft | 249 kts | 120° |
| 2026-05-05 10:30 | 44.12327 | 12.26618 | 5979 ft | 253 kts | 122° |
| 2026-05-05 10:30 | 44.11471 | 12.28765 | 6648 ft | 253 kts | 132° |
| 2026-05-05 10:30 | 44.10151 | 12.30242 | 7246 ft | 241 kts | 165° |
| 2026-05-05 10:31 | 44.08535 | 12.30625 | 7895 ft | 235 kts | 184° |
| 2026-05-05 10:31 | 44.06889 | 12.30507 | 8543 ft | 238 kts | 190° |
| 2026-05-05 10:31 | 44.05232 | 12.30225 | 9165 ft | 242 kts | 192° |
| 2026-05-05 10:31 | 44.03570 | 12.29925 | 9801 ft | 246 kts | 192° |
| 2026-05-05 10:32 | 44.01855 | 12.29651 | 10432 ft | 250 kts | 191° |
| 2026-05-05 10:32 | 44.00108 | 12.29392 | 11062 ft | 254 kts | 191° |
| 2026-05-05 10:32 | 43.98335 | 12.29138 | 11673 ft | 259 kts | 191° |
| 2026-05-05 10:32 | 43.96530 | 12.28879 | 12297 ft | 263 kts | 191° |
| 2026-05-05 10:33 | 43.94698 | 12.28621 | 12958 ft | 266 kts | 189° |
| 2026-05-05 10:33 | 43.92823 | 12.28815 | 13603 ft | 276 kts | 171° |
| 2026-05-05 10:33 | 43.90991 | 12.29744 | 14207 ft | 286 kts | 159° |
| 2026-05-05 10:33 | 43.89212 | 12.31117 | 14617 ft | 302 kts | 153° |
| 2026-05-05 10:34 | 43.87376 | 12.32726 | 14870 ft | 321 kts | 152° |
| 2026-05-05 10:34 | 43.85445 | 12.34362 | 15109 ft | 338 kts | 153° |
| 2026-05-05 10:34 | 43.83368 | 12.36058 | 15347 ft | 355 kts | 153° |
| 2026-05-05 10:34 | 43.81191 | 12.37841 | 15670 ft | 369 kts | 150° |
| 2026-05-05 10:35 | 43.79211 | 12.40191 | 16217 ft | 381 kts | 133° |
| 2026-05-05 10:35 | 43.77795 | 12.43329 | 16855 ft | 389 kts | 117° |
| 2026-05-05 10:35 | 43.76899 | 12.46885 | 17487 ft | 395 kts | 107° |
| 2026-05-05 10:35 | 43.76263 | 12.50598 | 18112 ft | 398 kts | 104° |
| 2026-05-05 10:36 | 43.75685 | 12.54373 | 18658 ft | 402 kts | 104° |
| 2026-05-05 10:36 | 43.75075 | 12.58119 | 19216 ft | 405 kts | 105° |
| 2026-05-05 10:36 | 43.74418 | 12.61937 | 19770 ft | 409 kts | 106° |
| 2026-05-05 10:36 | 43.73734 | 12.65779 | 20289 ft | 413 kts | 106° |
| 2026-05-05 10:37 | 43.73033 | 12.69643 | 20821 ft | 416 kts | 106° |
| 2026-05-05 10:37 | 43.72321 | 12.73532 | 21322 ft | 419 kts | 107° |
| 2026-05-05 10:37 | 43.71594 | 12.77472 | 21815 ft | 422 kts | 107° |
| 2026-05-05 10:37 | 43.70872 | 12.81367 | 22287 ft | 425 kts | 107° |
| 2026-05-05 10:38 | 43.70135 | 12.85333 | 22760 ft | 428 kts | 107° |
| 2026-05-05 10:38 | 43.69411 | 12.89367 | 23223 ft | 432 kts | 106° |
| 2026-05-05 10:38 | 43.68685 | 12.93409 | 23654 ft | 435 kts | 106° |
| 2026-05-05 10:38 | 43.67941 | 12.97480 | 24098 ft | 438 kts | 107° |
| 2026-05-05 10:39 | 43.67188 | 13.01560 | 24524 ft | 440 kts | 107° |
| 2026-05-05 10:39 | 43.66434 | 13.05678 | 24950 ft | 443 kts | 106° |
| 2026-05-05 10:39 | 43.65688 | 13.09821 | 25363 ft | 445 kts | 106° |
| 2026-05-05 10:39 | 43.64926 | 13.13921 | 25760 ft | 448 kts | 107° |
| 2026-05-05 10:40 | 43.64137 | 13.18107 | 26150 ft | 450 kts | 107° |
| 2026-05-05 10:40 | 43.63339 | 13.22310 | 26532 ft | 452 kts | 107° |
| 2026-05-05 10:40 | 43.62538 | 13.26513 | 26902 ft | 455 kts | 107° |
| 2026-05-05 10:40 | 43.61728 | 13.30752 | 27279 ft | 456 kts | 107° |
| 2026-05-05 10:41 | 43.60916 | 13.34994 | 27651 ft | 458 kts | 107° |
| 2026-05-05 10:41 | 43.60101 | 13.39253 | 27983 ft | 460 kts | 107° |
| 2026-05-05 10:41 | 43.59135 | 13.43455 | 28336 ft | 459 kts | 114° |
| 2026-05-05 10:41 | 43.57785 | 13.47370 | 28659 ft | 458 kts | 122° |
| 2026-05-05 10:42 | 43.54069 | 13.54508 | 29282 ft | 458 kts | 132° |
| 2026-05-05 10:42 | 43.51990 | 13.57851 | 29579 ft | 460 kts | 134° |
| 2026-05-05 10:42 | 43.49877 | 13.61170 | 29865 ft | 462 kts | 134° |
| 2026-05-05 10:43 | 43.47757 | 13.64514 | 30141 ft | 463 kts | 134° |
| 2026-05-05 10:43 | 43.45639 | 13.67866 | 30417 ft | 465 kts | 134° |
| 2026-05-05 10:43 | 43.43510 | 13.71238 | 30752 ft | 465 kts | 134° |
| 2026-05-05 10:43 | 43.41393 | 13.74594 | 31076 ft | 465 kts | 134° |
| 2026-05-05 10:44 | 43.39301 | 13.77909 | 31373 ft | 466 kts | 134° |
| 2026-05-05 10:44 | 43.37174 | 13.81277 | 31680 ft | 466 kts | 134° |
| 2026-05-05 10:44 | 43.35049 | 13.84669 | 31988 ft | 466 kts | 133° |
| 2026-05-05 10:44 | 43.32939 | 13.88073 | 32252 ft | 467 kts | 134° |
| 2026-05-05 10:45 | 43.30826 | 13.91459 | 32571 ft | 467 kts | 134° |
| 2026-05-05 10:45 | 43.28707 | 13.94839 | 32843 ft | 468 kts | 134° |
| 2026-05-05 10:45 | 43.26583 | 13.98217 | 33116 ft | 468 kts | 134° |
| 2026-05-05 10:45 | 43.24448 | 14.01603 | 33392 ft | 468 kts | 134° |
| 2026-05-05 10:46 | 43.22318 | 14.04976 | 33618 ft | 470 kts | 134° |
| 2026-05-05 10:46 | 43.20174 | 14.08365 | 33898 ft | 470 kts | 134° |
| 2026-05-05 10:46 | 43.18053 | 14.11712 | 34156 ft | 470 kts | 134° |
| 2026-05-05 10:46 | 43.15910 | 14.15090 | 34438 ft | 470 kts | 135° |
| 2026-05-05 10:47 | 43.13761 | 14.18471 | 34678 ft | 470 kts | 135° |
| 2026-05-05 10:47 | 43.11604 | 14.21863 | 34924 ft | 471 kts | 135° |
| 2026-05-05 10:47 | 43.09443 | 14.25256 | 35052 ft | 473 kts | 135° |
| 2026-05-05 10:48 | 43.05131 | 14.32015 | 35061 ft | 474 kts | 135° |
| 2026-05-05 10:48 | 43.00790 | 14.38804 | 35060 ft | 473 kts | 135° |
| 2026-05-05 10:49 | 42.96445 | 14.45582 | 35061 ft | 474 kts | 135° |
| 2026-05-05 10:49 | 42.92097 | 14.52349 | 35061 ft | 475 kts | 135° |
| 2026-05-05 10:50 | 42.87737 | 14.59121 | 35061 ft | 475 kts | 135° |
| 2026-05-05 10:50 | 42.83389 | 14.65858 | 35061 ft | 476 kts | 135° |
| 2026-05-05 10:51 | 42.79011 | 14.72625 | 35061 ft | 477 kts | 135° |
| 2026-05-05 10:51 | 42.74618 | 14.79401 | 35062 ft | 477 kts | 135° |
| 2026-05-05 10:52 | 42.70215 | 14.86175 | 35063 ft | 478 kts | 135° |
| 2026-05-05 10:52 | 42.65813 | 14.92933 | 35063 ft | 478 kts | 135° |
| 2026-05-05 10:53 | 42.61388 | 14.99711 | 35065 ft | 479 kts | 135° |
| 2026-05-05 10:53 | 42.56988 | 15.06435 | 35067 ft | 480 kts | 135° |
| 2026-05-05 10:54 | 42.52539 | 15.13219 | 35070 ft | 480 kts | 135° |
| 2026-05-05 10:54 | 42.48102 | 15.20031 | 35072 ft | 481 kts | 135° |
| 2026-05-05 10:55 | 42.43663 | 15.26765 | 35075 ft | 482 kts | 135° |
| 2026-05-05 10:55 | 42.39170 | 15.33545 | 35083 ft | 484 kts | 135° |
| 2026-05-05 10:56 | 42.34670 | 15.40322 | 35091 ft | 484 kts | 135° |
| 2026-05-05 10:56 | 42.30151 | 15.47121 | 35094 ft | 486 kts | 135° |
| 2026-05-05 10:57 | 42.25695 | 15.54025 | 35096 ft | 488 kts | 134° |
| 2026-05-05 10:57 | 42.21261 | 15.60917 | 35098 ft | 488 kts | 134° |
| 2026-05-05 10:58 | 42.16794 | 15.67830 | 35100 ft | 489 kts | 135° |
| 2026-05-05 10:58 | 42.12316 | 15.74739 | 35099 ft | 490 kts | 135° |
| 2026-05-05 10:59 | 42.07832 | 15.81640 | 35097 ft | 490 kts | 134° |
| 2026-05-05 10:59 | 42.03372 | 15.88601 | 35098 ft | 492 kts | 134° |
| 2026-05-05 11:00 | 41.98885 | 15.95552 | 35100 ft | 491 kts | 134° |
| 2026-05-05 11:00 | 41.94424 | 16.02420 | 35100 ft | 491 kts | 135° |
| 2026-05-05 11:01 | 41.89913 | 16.09341 | 35101 ft | 491 kts | 135° |
| 2026-05-05 11:01 | 41.85405 | 16.16236 | 35101 ft | 491 kts | 135° |
| 2026-05-05 11:02 | 41.80890 | 16.23125 | 35100 ft | 491 kts | 135° |
| 2026-05-05 11:02 | 41.76394 | 16.29968 | 35099 ft | 491 kts | 135° |
| 2026-05-05 11:03 | 41.71874 | 16.36832 | 35102 ft | 491 kts | 135° |
| 2026-05-05 11:03 | 41.67346 | 16.43691 | 35101 ft | 491 kts | 135° |
| 2026-05-05 11:04 | 41.62810 | 16.50547 | 35099 ft | 491 kts | 134° |
| 2026-05-05 11:04 | 41.58303 | 16.57343 | 35098 ft | 491 kts | 134° |
| 2026-05-05 11:05 | 41.53766 | 16.64170 | 35095 ft | 492 kts | 134° |
| 2026-05-05 11:05 | 41.49222 | 16.70990 | 35094 ft | 491 kts | 134° |
| 2026-05-05 11:06 | 41.44666 | 16.77814 | 35092 ft | 492 kts | 134° |
| 2026-05-05 11:06 | 41.40094 | 16.84646 | 35092 ft | 493 kts | 134° |
| 2026-05-05 11:07 | 41.35549 | 16.91422 | 35090 ft | 492 kts | 134° |
| 2026-05-05 11:07 | 41.30977 | 16.98223 | 35088 ft | 493 kts | 134° |
| 2026-05-05 11:08 | 41.26401 | 17.05015 | 35088 ft | 493 kts | 134° |
| 2026-05-05 11:08 | 41.21843 | 17.11764 | 35088 ft | 493 kts | 134° |
| 2026-05-05 11:09 | 41.17257 | 17.18539 | 35090 ft | 493 kts | 134° |
| 2026-05-05 11:09 | 41.12664 | 17.25309 | 35092 ft | 493 kts | 134° |
| 2026-05-05 11:10 | 41.08071 | 17.32066 | 35099 ft | 493 kts | 134° |
| 2026-05-05 11:10 | 41.04248 | 17.37677 | 35102 ft | 493 kts | 134° |
| 2026-05-05 11:11 | 40.98895 | 17.45516 | 35095 ft | 492 kts | 134° |
| 2026-05-05 11:11 | 40.95065 | 17.51112 | 35095 ft | 492 kts | 134° |
| 2026-05-05 11:12 | 40.90463 | 17.57823 | 35095 ft | 492 kts | 134° |
| 2026-05-05 11:12 | 40.85864 | 17.64515 | 35094 ft | 492 kts | 134° |
| 2026-05-05 11:13 | 40.81263 | 17.71229 | 35091 ft | 491 kts | 134° |
| 2026-05-05 11:13 | 40.76693 | 17.77873 | 35089 ft | 491 kts | 134° |
| 2026-05-05 11:14 | 40.72071 | 17.84535 | 35086 ft | 491 kts | 134° |
| 2026-05-05 11:14 | 40.67451 | 17.91179 | 35083 ft | 491 kts | 134° |
| 2026-05-05 11:15 | 40.62861 | 17.97769 | 35083 ft | 490 kts | 134° |
| 2026-05-05 11:15 | 40.58139 | 18.04246 | 35085 ft | 490 kts | 137° |
| 2026-05-05 11:16 | 40.53187 | 18.10432 | 35089 ft | 490 kts | 138° |
| 2026-05-05 11:16 | 40.48260 | 18.16624 | 35095 ft | 490 kts | 138° |
| 2026-05-05 11:17 | 40.43345 | 18.22820 | 35101 ft | 489 kts | 138° |
| 2026-05-05 11:17 | 40.38465 | 18.28972 | 35105 ft | 489 kts | 138° |
| 2026-05-05 11:18 | 40.33571 | 18.35187 | 35107 ft | 489 kts | 137° |
| 2026-05-05 11:18 | 40.28665 | 18.41409 | 35108 ft | 489 kts | 137° |
| 2026-05-05 11:19 | 40.23756 | 18.47597 | 35109 ft | 489 kts | 137° |
| 2026-05-05 11:19 | 40.18872 | 18.53732 | 35113 ft | 489 kts | 137° |
| 2026-05-05 11:20 | 40.13945 | 18.59906 | 35116 ft | 491 kts | 137° |
| 2026-05-05 11:20 | 40.09018 | 18.66068 | 35117 ft | 490 kts | 138° |
| 2026-05-05 11:21 | 40.04085 | 18.72241 | 35118 ft | 491 kts | 137° |
| 2026-05-05 11:21 | 39.99144 | 18.78425 | 35120 ft | 492 kts | 137° |
| 2026-05-05 11:22 | 39.94221 | 18.84530 | 35121 ft | 490 kts | 137° |
| 2026-05-05 11:22 | 39.89263 | 18.90660 | 35124 ft | 491 kts | 137° |
| 2026-05-05 11:23 | 39.84296 | 18.96793 | 35126 ft | 491 kts | 137° |
| 2026-05-05 11:23 | 39.79731 | 19.03420 | 35128 ft | 493 kts | 128° |
| 2026-05-05 11:24 | 39.75718 | 19.10589 | 35130 ft | 494 kts | 126° |
| 2026-05-05 11:24 | 39.71685 | 19.17827 | 35132 ft | 494 kts | 126° |
| 2026-05-05 11:25 | 39.67642 | 19.25027 | 35134 ft | 494 kts | 126° |
| 2026-05-05 11:25 | 39.63577 | 19.32234 | 35136 ft | 495 kts | 126° |
| 2026-05-05 11:26 | 39.59527 | 19.39458 | 35137 ft | 494 kts | 125° |
| 2026-05-05 11:26 | 39.55481 | 19.46684 | 35140 ft | 495 kts | 126° |
| 2026-05-05 11:27 | 39.51443 | 19.53839 | 35141 ft | 495 kts | 126° |
| 2026-05-05 11:27 | 39.47359 | 19.61045 | 35141 ft | 495 kts | 126° |
| 2026-05-05 11:28 | 39.43278 | 19.68228 | 35141 ft | 495 kts | 126° |
| 2026-05-05 11:28 | 39.39187 | 19.75412 | 35142 ft | 495 kts | 126° |
| 2026-05-05 11:29 | 39.35095 | 19.82580 | 35142 ft | 495 kts | 126° |
| 2026-05-05 11:29 | 39.31031 | 19.89692 | 35142 ft | 495 kts | 126° |
| 2026-05-05 11:30 | 39.26943 | 19.96880 | 35144 ft | 495 kts | 126° |
| 2026-05-05 11:30 | 39.22842 | 20.04000 | 35145 ft | 495 kts | 126° |
| 2026-05-05 11:31 | 39.18718 | 20.11136 | 35146 ft | 496 kts | 126° |
| 2026-05-05 11:31 | 39.14617 | 20.18223 | 35148 ft | 496 kts | 126° |
| 2026-05-05 11:32 | 39.10498 | 20.25359 | 35150 ft | 496 kts | 126° |
| 2026-05-05 11:32 | 39.06401 | 20.32485 | 35152 ft | 495 kts | 125° |
| 2026-05-05 11:33 | 39.02332 | 20.39629 | 35155 ft | 495 kts | 126° |
| 2026-05-05 11:33 | 38.98220 | 20.46751 | 35158 ft | 495 kts | 126° |
| 2026-05-05 11:34 | 38.94107 | 20.53846 | 35162 ft | 495 kts | 126° |
| 2026-05-05 11:34 | 38.90009 | 20.60905 | 35165 ft | 495 kts | 126° |
| 2026-05-05 11:35 | 38.85880 | 20.67972 | 35167 ft | 495 kts | 126° |
| 2026-05-05 11:35 | 38.81712 | 20.75018 | 35168 ft | 495 kts | 126° |
| 2026-05-05 11:36 | 38.77535 | 20.82057 | 35170 ft | 496 kts | 126° |
| 2026-05-05 11:36 | 38.73347 | 20.89095 | 35170 ft | 496 kts | 126° |
| 2026-05-05 11:37 | 38.69182 | 20.96083 | 35170 ft | 496 kts | 126° |
| 2026-05-05 11:37 | 38.65007 | 21.03116 | 35170 ft | 496 kts | 126° |
| 2026-05-05 11:38 | 38.60832 | 21.10186 | 35169 ft | 497 kts | 126° |
| 2026-05-05 11:38 | 38.56639 | 21.17231 | 35169 ft | 497 kts | 126° |
| 2026-05-05 11:39 | 38.52465 | 21.24213 | 35168 ft | 498 kts | 126° |
| 2026-05-05 11:39 | 38.48253 | 21.31239 | 35169 ft | 498 kts | 126° |
| 2026-05-05 11:40 | 38.44033 | 21.38261 | 35169 ft | 498 kts | 126° |
| 2026-05-05 11:40 | 38.39807 | 21.45277 | 35168 ft | 499 kts | 126° |
| 2026-05-05 11:41 | 38.35553 | 21.52325 | 34717 ft | 501 kts | 126° |
| 2026-05-05 11:41 | 38.33427 | 21.55840 | 34039 ft | 501 kts | 126° |
| 2026-05-05 11:41 | 38.31296 | 21.59361 | 33426 ft | 501 kts | 126° |
| 2026-05-05 11:41 | 38.29177 | 21.62858 | 32910 ft | 498 kts | 126° |
| 2026-05-05 11:42 | 38.27067 | 21.66336 | 32399 ft | 495 kts | 126° |
| 2026-05-05 11:42 | 38.24996 | 21.69748 | 31899 ft | 492 kts | 126° |
| 2026-05-05 11:42 | 38.22906 | 21.73185 | 31397 ft | 489 kts | 126° |
| 2026-05-05 11:42 | 38.20828 | 21.76601 | 30901 ft | 486 kts | 125° |
| 2026-05-05 11:43 | 38.18766 | 21.79986 | 30410 ft | 483 kts | 125° |
| 2026-05-05 11:43 | 38.16708 | 21.83362 | 29924 ft | 481 kts | 125° |
| 2026-05-05 11:43 | 38.14663 | 21.86713 | 29447 ft | 478 kts | 125° |
| 2026-05-05 11:43 | 38.12631 | 21.90038 | 28971 ft | 475 kts | 125° |
| 2026-05-05 11:44 | 38.10610 | 21.93343 | 28496 ft | 473 kts | 125° |
| 2026-05-05 11:44 | 38.08598 | 21.96629 | 28023 ft | 470 kts | 125° |
| 2026-05-05 11:44 | 38.06595 | 21.99898 | 27551 ft | 467 kts | 126° |
| 2026-05-05 11:44 | 38.04606 | 22.03142 | 27080 ft | 464 kts | 126° |
| 2026-05-05 11:45 | 38.02653 | 22.06322 | 26616 ft | 461 kts | 126° |
| 2026-05-05 11:45 | 38.00691 | 22.09514 | 26143 ft | 452 kts | 126° |
| 2026-05-05 11:45 | 37.98786 | 22.12611 | 25693 ft | 442 kts | 126° |
| 2026-05-05 11:45 | 37.96897 | 22.15679 | 25241 ft | 440 kts | 126° |
| 2026-05-05 11:46 | 37.95018 | 22.18728 | 24788 ft | 437 kts | 126° |
| 2026-05-05 11:46 | 37.93144 | 22.21766 | 24332 ft | 435 kts | 126° |
| 2026-05-05 11:46 | 37.91286 | 22.24775 | 23881 ft | 432 kts | 126° |
| 2026-05-05 11:46 | 37.89449 | 22.27778 | 23430 ft | 430 kts | 125° |
| 2026-05-05 11:47 | 37.87636 | 22.30733 | 22983 ft | 422 kts | 126° |
| 2026-05-05 11:47 | 37.85852 | 22.33621 | 22545 ft | 419 kts | 126° |
| 2026-05-05 11:47 | 37.84034 | 22.36552 | 22097 ft | 417 kts | 126° |
| 2026-05-05 11:47 | 37.82243 | 22.39432 | 21653 ft | 415 kts | 126° |
| 2026-05-05 11:48 | 37.78713 | 22.45098 | 20777 ft | 410 kts | 126° |
| 2026-05-05 11:48 | 37.76951 | 22.47923 | 20338 ft | 408 kts | 126° |
| 2026-05-05 11:48 | 37.75196 | 22.50735 | 19900 ft | 405 kts | 126° |
| 2026-05-05 11:49 | 37.73452 | 22.53530 | 19466 ft | 403 kts | 126° |
| 2026-05-05 11:49 | 37.71755 | 22.56290 | 19037 ft | 400 kts | 123° |
| 2026-05-05 11:49 | 37.70310 | 22.59264 | 18607 ft | 396 kts | 115° |
| 2026-05-05 11:49 | 37.69106 | 22.62373 | 18177 ft | 392 kts | 112° |
| 2026-05-05 11:50 | 37.67970 | 22.65498 | 17749 ft | 390 kts | 112° |
| 2026-05-05 11:50 | 37.66850 | 22.68615 | 17322 ft | 387 kts | 112° |
| 2026-05-05 11:50 | 37.65743 | 22.71699 | 16901 ft | 385 kts | 112° |
| 2026-05-05 11:50 | 37.64641 | 22.74771 | 16480 ft | 382 kts | 112° |
| 2026-05-05 11:51 | 37.63547 | 22.77819 | 16061 ft | 380 kts | 112° |
| 2026-05-05 11:51 | 37.62457 | 22.80854 | 15644 ft | 376 kts | 112° |
| 2026-05-05 11:51 | 37.61416 | 22.83749 | 15246 ft | 362 kts | 112° |
| 2026-05-05 11:51 | 37.60403 | 22.86641 | 14849 ft | 360 kts | 111° |
| 2026-05-05 11:52 | 37.59395 | 22.89523 | 14452 ft | 358 kts | 111° |
| 2026-05-05 11:52 | 37.58381 | 22.92381 | 14056 ft | 356 kts | 112° |
| 2026-05-05 11:52 | 37.57364 | 22.95218 | 13662 ft | 354 kts | 112° |
| 2026-05-05 11:52 | 37.56347 | 22.98041 | 13266 ft | 352 kts | 112° |
| 2026-05-05 11:53 | 37.55333 | 23.00850 | 12869 ft | 350 kts | 112° |
| 2026-05-05 11:53 | 37.54322 | 23.03643 | 12474 ft | 348 kts | 112° |
| 2026-05-05 11:53 | 37.53321 | 23.06408 | 12083 ft | 346 kts | 112° |
| 2026-05-05 11:53 | 37.52335 | 23.09127 | 11699 ft | 344 kts | 112° |
| 2026-05-05 11:54 | 37.51342 | 23.11864 | 11312 ft | 342 kts | 112° |
| 2026-05-05 11:54 | 37.50355 | 23.14583 | 10923 ft | 337 kts | 112° |
| 2026-05-05 11:54 | 37.49402 | 23.17209 | 10547 ft | 325 kts | 112° |
| 2026-05-05 11:54 | 37.48535 | 23.19805 | 10343 ft | 316 kts | 104° |
| 2026-05-05 11:55 | 37.48381 | 23.22462 | 10258 ft | 298 kts | 77° |
| 2026-05-05 11:55 | 37.49034 | 23.24864 | 10192 ft | 283 kts | 62° |
| 2026-05-05 11:55 | 37.49924 | 23.26995 | 10119 ft | 272 kts | 58° |
| 2026-05-05 11:55 | 37.50870 | 23.29040 | 9885 ft | 269 kts | 57° |
| 2026-05-05 11:56 | 37.51799 | 23.31087 | 9540 ft | 270 kts | 58° |
| 2026-05-05 11:56 | 37.52710 | 23.33152 | 9222 ft | 270 kts | 59° |
| 2026-05-05 11:56 | 37.53611 | 23.35226 | 8912 ft | 269 kts | 59° |
| 2026-05-05 11:56 | 37.54504 | 23.37293 | 8606 ft | 268 kts | 59° |
| 2026-05-05 11:57 | 37.55392 | 23.39354 | 8300 ft | 267 kts | 59° |
| 2026-05-05 11:57 | 37.55978 | 23.40718 | 8098 ft | 266 kts | 59° |
| 2026-05-05 11:57 | 37.56861 | 23.42769 | 7794 ft | 265 kts | 59° |
| 2026-05-05 11:57 | 37.58023 | 23.45477 | 7391 ft | 264 kts | 59° |
| 2026-05-05 11:58 | 37.58898 | 23.47509 | 7087 ft | 263 kts | 59° |
| 2026-05-05 11:58 | 37.59769 | 23.49535 | 6801 ft | 261 kts | 59° |
| 2026-05-05 11:58 | 37.60338 | 23.50859 | 6729 ft | 255 kts | 59° |
| 2026-05-05 11:58 | 37.61165 | 23.52787 | 6656 ft | 245 kts | 59° |
| 2026-05-05 11:59 | 37.61956 | 23.54637 | 6541 ft | 236 kts | 59° |
| 2026-05-05 11:59 | 37.62739 | 23.56457 | 6284 ft | 234 kts | 59° |
| 2026-05-05 11:59 | 37.63511 | 23.58257 | 6020 ft | 233 kts | 59° |
| 2026-05-05 11:59 | 37.64281 | 23.60056 | 5753 ft | 232 kts | 59° |
| 2026-05-05 12:00 | 37.65046 | 23.61845 | 5483 ft | 230 kts | 60° |
| 2026-05-05 12:00 | 37.65795 | 23.63602 | 5215 ft | 229 kts | 60° |
| 2026-05-05 12:00 | 37.66552 | 23.65372 | 4945 ft | 228 kts | 60° |
| 2026-05-05 12:00 | 37.67304 | 23.67131 | 4676 ft | 227 kts | 60° |
| 2026-05-05 12:01 | 37.68089 | 23.68850 | 4424 ft | 224 kts | 53° |
| 2026-05-05 12:01 | 37.69158 | 23.70253 | 4151 ft | 220 kts | 39° |
| 2026-05-05 12:01 | 37.70355 | 23.71398 | 3880 ft | 217 kts | 35° |
| 2026-05-05 12:01 | 37.71579 | 23.72510 | 3609 ft | 215 kts | 35° |
| 2026-05-05 12:02 | 37.72789 | 23.73609 | 3342 ft | 213 kts | 35° |
| 2026-05-05 12:02 | 37.73971 | 23.74686 | 3195 ft | 205 kts | 35° |
| 2026-05-05 12:02 | 37.75084 | 23.75723 | 3136 ft | 192 kts | 36° |
| 2026-05-05 12:02 | 37.76154 | 23.76730 | 3089 ft | 190 kts | 36° |
| 2026-05-05 12:03 | 37.77198 | 23.77714 | 3038 ft | 184 kts | 36° |
| 2026-05-05 12:03 | 37.78204 | 23.78664 | 2983 ft | 181 kts | 36° |
| 2026-05-05 12:03 | 37.79201 | 23.79605 | 2970 ft | 177 kts | 36° |
| 2026-05-05 12:03 | 37.80186 | 23.80534 | 2972 ft | 176 kts | 36° |
| 2026-05-05 12:04 | 37.81171 | 23.81462 | 2955 ft | 178 kts | 36° |
| 2026-05-05 12:04 | 37.82162 | 23.82398 | 2800 ft | 178 kts | 36° |
| 2026-05-05 12:04 | 37.83147 | 23.83331 | 2554 ft | 175 kts | 36° |
| 2026-05-05 12:04 | 37.84092 | 23.84228 | 2335 ft | 167 kts | 37° |
| 2026-05-05 12:05 | 37.84997 | 23.85086 | 2093 ft | 157 kts | 37° |
| 2026-05-05 12:05 | 37.85849 | 23.85895 | 1922 ft | 148 kts | 37° |
| 2026-05-05 12:05 | 37.86664 | 23.86670 | 1711 ft | 146 kts | 38° |
| 2026-05-05 12:05 | 37.87485 | 23.87450 | 1515 ft | 149 kts | 38° |
| 2026-05-05 12:06 | 37.88322 | 23.88245 | 1316 ft | 152 kts | 39° |
| 2026-05-05 12:06 | 37.89173 | 23.89055 | 1109 ft | 154 kts | 39° |
| 2026-05-05 12:06 | 37.90015 | 23.89911 | 868 ft | 155 kts | 41° |
| 2026-05-05 12:06 | 37.90870 | 23.90706 | 705 ft | 150 kts | 37° |
| 2026-05-05 12:07 | 37.91718 | 23.91481 | 480 ft | 150 kts | 39° |
| 2026-05-05 12:07 | 37.92543 | 23.92266 | 333 ft | 145 kts | 39° |
| 2026-05-05 12:07 | 37.93271 | 23.92964 | 317 ft | 104 kts | 36° |
| 2026-05-05 12:07 | 37.93684 | 23.93354 | 316 ft | 55 kts | 38° |
| 2026-05-05 12:08 | 37.93874 | 23.93565 | 316 ft | 25 kts | 56° |
| 2026-05-05 12:08 | 37.93934 | 23.93708 | 316 ft | 16 kts | 66° |
| 2026-05-05 12:08 | 37.93977 | 23.93831 | 316 ft | 15 kts | 66° |
| 2026-05-05 12:08 | 37.94021 | 23.93944 | 316 ft | 14 kts | 51° |
| 2026-05-05 12:09 | 37.94093 | 23.94018 | 316 ft | 13 kts | 37° |
| 2026-05-05 12:09 | 37.94165 | 23.94085 | 316 ft | 13 kts | 37° |
| 2026-05-05 12:09 | 37.94233 | 23.94149 | 316 ft | 12 kts | 37° |
| 2026-05-05 12:09 | 37.94299 | 23.94211 | 316 ft | 12 kts | 37° |
| 2026-05-05 12:10 | 37.94363 | 23.94271 | 316 ft | 11 kts | 37° |
| 2026-05-05 12:10 | 37.94423 | 23.94328 | 316 ft | 11 kts | 37° |
| 2026-05-05 12:10 | 37.94481 | 23.94382 | 316 ft | 10 kts | 37° |
| 2026-05-05 12:10 | 37.94537 | 23.94435 | 316 ft | 10 kts | 37° |
| 2026-05-05 12:11 | 37.94590 | 23.94485 | 316 ft | 9 kts | 37° |
| 2026-05-05 12:11 | 37.94644 | 23.94536 | 316 ft | 10 kts | 37° |
| 2026-05-05 12:11 | 37.94683 | 23.94601 | 316 ft | 9 kts | 82° |
| 2026-05-05 12:11 | 37.94659 | 23.94673 | 316 ft | 9 kts | 126° |
| 2026-05-05 12:12 | 37.94623 | 23.94734 | 316 ft | 9 kts | 127° |
| 2026-05-05 12:12 | 37.94588 | 23.94793 | 316 ft | 8 kts | 127° |
| 2026-05-05 12:12 | 37.94553 | 23.94852 | 316 ft | 9 kts | 127° |
| 2026-05-05 12:12 | 37.94511 | 23.94921 | 316 ft | 11 kts | 127° |
| 2026-05-05 12:13 | 37.94464 | 23.95000 | 316 ft | 12 kts | 127° |
| 2026-05-05 12:13 | 37.94412 | 23.95087 | 316 ft | 13 kts | 127° |
| 2026-05-05 12:13 | 37.94355 | 23.95182 | 316 ft | 14 kts | 127° |
| 2026-05-05 12:13 | 37.94295 | 23.95281 | 316 ft | 14 kts | 127° |
| 2026-05-05 12:14 | 37.94239 | 23.95375 | 316 ft | 13 kts | 127° |
| 2026-05-05 12:14 | 37.94185 | 23.95465 | 316 ft | 13 kts | 127° |
| 2026-05-05 12:14 | 37.94131 | 23.95549 | 316 ft | 12 kts | 145° |
| 2026-05-05 12:14 | 37.94057 | 23.95526 | 316 ft | 12 kts | 216° |
| 2026-05-05 12:15 | 37.93995 | 23.95467 | 316 ft | 11 kts | 217° |
| 2026-05-05 12:15 | 37.93934 | 23.95409 | 316 ft | 11 kts | 217° |
| 2026-05-05 12:15 | 37.93891 | 23.95338 | 316 ft | 10 kts | 246° |
| 2026-05-05 12:15 | 37.93867 | 23.95255 | 316 ft | 10 kts | 250° |
| 2026-05-05 12:16 | 37.93830 | 23.95189 | 316 ft | 8 kts | 220° |
| 2026-05-05 12:16 | 37.93840 | 23.95133 | 316 ft | 6 kts | 308° |
| 2026-05-05 12:16 | 37.93864 | 23.95095 | 316 ft | 3 kts | 307° |
| 2026-05-05 12:16 | 37.93869 | 23.95085 | 316 ft | 0 kts | 307° |
| 2026-05-05 12:17 | 37.93870 | 23.95085 | 316 ft | 0 kts | 307° |